sensor_id;sensor_type;location;lat;lon;timestamp;P1;durP1;ratioP1;P2;durP2;ratioP2
17604;SDS011;8921;50.964;6.800;2022-11-20T00:00:29;23.93;;;14.50;;
17604;SDS011;8921;50.964;6.800;2022-11-20T00:02:57;29.17;;;16.10;;
17604;SDS011;8921;50.964;6.800;2022-11-20T00:05:26;21.80;;;14.20;;
17604;SDS011;8921;50.964;6.800;2022-11-20T00:07:54;23.90;;;14.13;;
17604;SDS011;8921;50.964;6.800;2022-11-20T00:10:22;19.93;;;12.53;;
17604;SDS011;8921;50.964;6.800;2022-11-20T00:12:50;25.47;;;14.17;;
17604;SDS011;8921;50.964;6.800;2022-11-20T00:15:18;20.83;;;12.67;;
17604;SDS011;8921;50.964;6.800;2022-11-20T00:17:47;22.50;;;13.57;;
17604;SDS011;8921;50.964;6.800;2022-11-20T00:20:15;19.97;;;13.30;;
17604;SDS011;8921;50.964;6.800;2022-11-20T00:22:43;21.73;;;12.43;;
17604;SDS011;8921;50.964;6.800;2022-11-20T00:25:11;23.93;;;14.83;;
17604;SDS011;8921;50.964;6.800;2022-11-20T00:27:39;25.67;;;14.03;;
17604;SDS011;8921;50.964;6.800;2022-11-20T00:30:08;23.43;;;13.30;;
17604;SDS011;8921;50.964;6.800;2022-11-20T00:32:36;23.37;;;13.40;;
17604;SDS011;8921;50.964;6.800;2022-11-20T00:35:04;23.90;;;13.70;;
17604;SDS011;8921;50.964;6.800;2022-11-20T00:37:32;24.17;;;14.07;;
17604;SDS011;8921;50.964;6.800;2022-11-20T00:40:01;26.50;;;15.00;;
17604;SDS011;8921;50.964;6.800;2022-11-20T00:42:29;22.53;;;13.47;;
17604;SDS011;8921;50.964;6.800;2022-11-20T00:44:57;25.63;;;13.87;;
17604;SDS011;8921;50.964;6.800;2022-11-20T00:47:25;27.90;;;13.67;;
17604;SDS011;8921;50.964;6.800;2022-11-20T00:49:53;23.60;;;14.80;;
17604;SDS011;8921;50.964;6.800;2022-11-20T00:52:22;27.40;;;13.63;;
17604;SDS011;8921;50.964;6.800;2022-11-20T00:54:50;23.17;;;14.90;;
17604;SDS011;8921;50.964;6.800;2022-11-20T00:57:18;24.83;;;13.70;;
17604;SDS011;8921;50.964;6.800;2022-11-20T00:59:46;24.23;;;13.20;;
17604;SDS011;8921;50.964;6.800;2022-11-20T01:02:14;21.53;;;13.43;;
17604;SDS011;8921;50.964;6.800;2022-11-20T01:04:43;22.87;;;14.33;;
17604;SDS011;8921;50.964;6.800;2022-11-20T01:07:11;21.73;;;12.53;;
17604;SDS011;8921;50.964;6.800;2022-11-20T01:09:39;23.87;;;13.13;;
17604;SDS011;8921;50.964;6.800;2022-11-20T01:12:07;20.80;;;11.97;;
17604;SDS011;8921;50.964;6.800;2022-11-20T01:14:35;21.60;;;13.33;;
17604;SDS011;8921;50.964;6.800;2022-11-20T01:17:04;24.90;;;15.63;;
17604;SDS011;8921;50.964;6.800;2022-11-20T01:19:32;22.30;;;13.23;;
17604;SDS011;8921;50.964;6.800;2022-11-20T01:22:00;26.63;;;13.47;;
17604;SDS011;8921;50.964;6.800;2022-11-20T01:24:28;23.13;;;13.17;;
17604;SDS011;8921;50.964;6.800;2022-11-20T01:26:56;23.33;;;14.03;;
17604;SDS011;8921;50.964;6.800;2022-11-20T01:29:25;23.20;;;14.07;;
17604;SDS011;8921;50.964;6.800;2022-11-20T01:31:53;22.97;;;14.37;;
17604;SDS011;8921;50.964;6.800;2022-11-20T01:34:21;22.23;;;12.97;;
17604;SDS011;8921;50.964;6.800;2022-11-20T01:36:49;21.23;;;13.20;;
17604;SDS011;8921;50.964;6.800;2022-11-20T01:39:18;21.53;;;12.03;;
17604;SDS011;8921;50.964;6.800;2022-11-20T01:41:46;23.87;;;13.93;;
17604;SDS011;8921;50.964;6.800;2022-11-20T01:44:43;21.40;;;12.63;;
17604;SDS011;8921;50.964;6.800;2022-11-20T01:47:09;21.20;;;13.67;;
17604;SDS011;8921;50.964;6.800;2022-11-20T01:49:39;21.80;;;13.30;;
17604;SDS011;8921;50.964;6.800;2022-11-20T01:52:12;21.17;;;13.03;;
17604;SDS011;8921;50.964;6.800;2022-11-20T01:54:48;23.43;;;13.07;;
17604;SDS011;8921;50.964;6.800;2022-11-20T01:57:14;23.20;;;13.10;;
17604;SDS011;8921;50.964;6.800;2022-11-20T01:59:48;24.13;;;14.20;;
17604;SDS011;8921;50.964;6.800;2022-11-20T02:02:14;23.23;;;12.43;;
17604;SDS011;8921;50.964;6.800;2022-11-20T02:04:41;23.00;;;14.27;;
17604;SDS011;8921;50.964;6.800;2022-11-20T02:07:10;20.57;;;12.63;;
17604;SDS011;8921;50.964;6.800;2022-11-20T02:09:38;26.57;;;14.13;;
17604;SDS011;8921;50.964;6.800;2022-11-20T02:12:06;19.80;;;13.20;;
17604;SDS011;8921;50.964;6.800;2022-11-20T02:14:34;25.27;;;13.67;;
17604;SDS011;8921;50.964;6.800;2022-11-20T02:17:03;25.80;;;14.40;;
17604;SDS011;8921;50.964;6.800;2022-11-20T02:19:31;25.30;;;13.53;;
17604;SDS011;8921;50.964;6.800;2022-11-20T02:22:17;23.10;;;13.83;;
17604;SDS011;8921;50.964;6.800;2022-11-20T02:24:42;23.13;;;13.07;;
17604;SDS011;8921;50.964;6.800;2022-11-20T02:27:12;23.67;;;13.60;;
17604;SDS011;8921;50.964;6.800;2022-11-20T02:29:49;23.27;;;13.33;;
17604;SDS011;8921;50.964;6.800;2022-11-20T02:32:23;21.93;;;14.33;;
17604;SDS011;8921;50.964;6.800;2022-11-20T02:34:50;23.63;;;13.67;;
17604;SDS011;8921;50.964;6.800;2022-11-20T02:37:18;23.30;;;13.03;;
17604;SDS011;8921;50.964;6.800;2022-11-20T02:39:47;21.00;;;13.30;;
17604;SDS011;8921;50.964;6.800;2022-11-20T02:42:15;24.33;;;13.50;;
17604;SDS011;8921;50.964;6.800;2022-11-20T02:44:43;23.30;;;13.90;;
17604;SDS011;8921;50.964;6.800;2022-11-20T02:47:11;22.50;;;13.73;;
17604;SDS011;8921;50.964;6.800;2022-11-20T02:49:39;26.23;;;14.63;;
17604;SDS011;8921;50.964;6.800;2022-11-20T02:52:07;22.97;;;13.20;;
17604;SDS011;8921;50.964;6.800;2022-11-20T02:54:36;22.00;;;11.83;;
17604;SDS011;8921;50.964;6.800;2022-11-20T02:57:04;21.97;;;12.37;;
17604;SDS011;8921;50.964;6.800;2022-11-20T02:59:32;26.00;;;14.33;;
17604;SDS011;8921;50.964;6.800;2022-11-20T03:02:00;20.60;;;12.17;;
17604;SDS011;8921;50.964;6.800;2022-11-20T03:04:29;26.53;;;14.00;;
17604;SDS011;8921;50.964;6.800;2022-11-20T03:06:57;25.20;;;14.50;;
17604;SDS011;8921;50.964;6.800;2022-11-20T03:09:25;22.10;;;13.63;;
17604;SDS011;8921;50.964;6.800;2022-11-20T03:11:53;24.33;;;14.27;;
17604;SDS011;8921;50.964;6.800;2022-11-20T03:14:22;21.60;;;13.90;;
17604;SDS011;8921;50.964;6.800;2022-11-20T03:16:50;25.73;;;14.83;;
17604;SDS011;8921;50.964;6.800;2022-11-20T03:19:18;24.13;;;13.83;;
17604;SDS011;8921;50.964;6.800;2022-11-20T03:21:46;23.53;;;15.00;;
17604;SDS011;8921;50.964;6.800;2022-11-20T03:24:14;24.43;;;14.47;;
17604;SDS011;8921;50.964;6.800;2022-11-20T03:26:43;23.30;;;13.40;;
17604;SDS011;8921;50.964;6.800;2022-11-20T03:29:11;21.77;;;13.23;;
17604;SDS011;8921;50.964;6.800;2022-11-20T03:31:39;22.07;;;12.50;;
17604;SDS011;8921;50.964;6.800;2022-11-20T03:34:08;24.27;;;13.50;;
17604;SDS011;8921;50.964;6.800;2022-11-20T03:36:39;26.63;;;13.97;;
17604;SDS011;8921;50.964;6.800;2022-11-20T03:39:04;21.40;;;14.33;;
17604;SDS011;8921;50.964;6.800;2022-11-20T03:41:35;23.97;;;13.43;;
17604;SDS011;8921;50.964;6.800;2022-11-20T03:44:01;24.83;;;13.70;;
17604;SDS011;8921;50.964;6.800;2022-11-20T03:46:28;23.63;;;13.13;;
17604;SDS011;8921;50.964;6.800;2022-11-20T03:48:57;26.03;;;14.70;;
17604;SDS011;8921;50.964;6.800;2022-11-20T03:51:26;22.50;;;14.67;;
17604;SDS011;8921;50.964;6.800;2022-11-20T03:53:54;25.77;;;14.00;;
17604;SDS011;8921;50.964;6.800;2022-11-20T03:56:25;22.80;;;14.17;;
17604;SDS011;8921;50.964;6.800;2022-11-20T03:58:52;26.90;;;15.07;;
17604;SDS011;8921;50.964;6.800;2022-11-20T04:01:26;25.37;;;14.10;;
17604;SDS011;8921;50.964;6.800;2022-11-20T04:03:52;22.17;;;13.60;;
17604;SDS011;8921;50.964;6.800;2022-11-20T04:06:20;22.77;;;13.43;;
17604;SDS011;8921;50.964;6.800;2022-11-20T04:08:48;24.47;;;14.23;;
17604;SDS011;8921;50.964;6.800;2022-11-20T04:13:50;22.60;;;13.43;;
17604;SDS011;8921;50.964;6.800;2022-11-20T04:16:15;24.47;;;14.13;;
17604;SDS011;8921;50.964;6.800;2022-11-20T04:18:43;24.00;;;13.60;;
17604;SDS011;8921;50.964;6.800;2022-11-20T04:21:11;27.83;;;14.30;;
17604;SDS011;8921;50.964;6.800;2022-11-20T04:23:39;24.57;;;14.30;;
17604;SDS011;8921;50.964;6.800;2022-11-20T04:26:09;25.57;;;14.40;;
17604;SDS011;8921;50.964;6.800;2022-11-20T04:28:36;25.60;;;14.43;;
17604;SDS011;8921;50.964;6.800;2022-11-20T04:31:05;26.50;;;14.33;;
17604;SDS011;8921;50.964;6.800;2022-11-20T04:33:33;23.43;;;13.60;;
17604;SDS011;8921;50.964;6.800;2022-11-20T04:36:06;27.57;;;14.87;;
17604;SDS011;8921;50.964;6.800;2022-11-20T04:38:31;22.53;;;13.80;;
17604;SDS011;8921;50.964;6.800;2022-11-20T04:41:00;25.40;;;14.67;;
17604;SDS011;8921;50.964;6.800;2022-11-20T04:43:28;24.90;;;14.50;;
17604;SDS011;8921;50.964;6.800;2022-11-20T04:45:56;26.43;;;15.60;;
17604;SDS011;8921;50.964;6.800;2022-11-20T04:48:24;25.80;;;13.53;;
17604;SDS011;8921;50.964;6.800;2022-11-20T04:50:52;22.50;;;15.10;;
17604;SDS011;8921;50.964;6.800;2022-11-20T04:53:21;25.97;;;14.53;;
17604;SDS011;8921;50.964;6.800;2022-11-20T04:55:49;28.50;;;14.97;;
17604;SDS011;8921;50.964;6.800;2022-11-20T04:58:17;26.47;;;16.20;;
17604;SDS011;8921;50.964;6.800;2022-11-20T05:00:45;22.07;;;14.00;;
17604;SDS011;8921;50.964;6.800;2022-11-20T05:03:13;25.00;;;14.30;;
17604;SDS011;8921;50.964;6.800;2022-11-20T05:05:41;24.70;;;16.80;;
17604;SDS011;8921;50.964;6.800;2022-11-20T05:08:10;25.30;;;14.97;;
17604;SDS011;8921;50.964;6.800;2022-11-20T05:10:38;23.60;;;15.43;;
17604;SDS011;8921;50.964;6.800;2022-11-20T05:13:06;23.60;;;14.17;;
17604;SDS011;8921;50.964;6.800;2022-11-20T05:15:34;24.57;;;14.10;;
17604;SDS011;8921;50.964;6.800;2022-11-20T05:18:02;24.60;;;14.13;;
17604;SDS011;8921;50.964;6.800;2022-11-20T05:20:31;25.30;;;15.30;;
17604;SDS011;8921;50.964;6.800;2022-11-20T05:22:59;25.73;;;14.73;;
17604;SDS011;8921;50.964;6.800;2022-11-20T05:25:27;26.70;;;15.70;;
17604;SDS011;8921;50.964;6.800;2022-11-20T05:27:55;26.40;;;15.80;;
17604;SDS011;8921;50.964;6.800;2022-11-20T05:30:23;24.83;;;14.33;;
17604;SDS011;8921;50.964;6.800;2022-11-20T05:32:52;25.13;;;14.73;;
17604;SDS011;8921;50.964;6.800;2022-11-20T05:35:20;25.93;;;15.67;;
17604;SDS011;8921;50.964;6.800;2022-11-20T05:37:48;31.40;;;14.60;;
17604;SDS011;8921;50.964;6.800;2022-11-20T05:40:16;26.20;;;14.77;;
17604;SDS011;8921;50.964;6.800;2022-11-20T05:42:44;25.17;;;14.67;;
17604;SDS011;8921;50.964;6.800;2022-11-20T05:45:13;28.73;;;15.57;;
17604;SDS011;8921;50.964;6.800;2022-11-20T05:47:41;22.50;;;13.83;;
17604;SDS011;8921;50.964;6.800;2022-11-20T05:50:09;25.00;;;14.80;;
17604;SDS011;8921;50.964;6.800;2022-11-20T05:52:37;25.20;;;14.27;;
17604;SDS011;8921;50.964;6.800;2022-11-20T05:55:06;25.27;;;15.43;;
17604;SDS011;8921;50.964;6.800;2022-11-20T05:57:34;24.10;;;14.20;;
17604;SDS011;8921;50.964;6.800;2022-11-20T06:00:02;20.80;;;13.00;;
17604;SDS011;8921;50.964;6.800;2022-11-20T06:02:30;27.20;;;14.33;;
17604;SDS011;8921;50.964;6.800;2022-11-20T06:04:58;28.70;;;16.13;;
17604;SDS011;8921;50.964;6.800;2022-11-20T06:07:27;22.33;;;13.83;;
17604;SDS011;8921;50.964;6.800;2022-11-20T06:09:55;23.97;;;14.50;;
17604;SDS011;8921;50.964;6.800;2022-11-20T06:12:23;26.33;;;14.90;;
17604;SDS011;8921;50.964;6.800;2022-11-20T06:14:51;26.70;;;15.00;;
17604;SDS011;8921;50.964;6.800;2022-11-20T06:17:19;31.60;;;17.40;;
17604;SDS011;8921;50.964;6.800;2022-11-20T06:19:48;32.07;;;15.40;;
17604;SDS011;8921;50.964;6.800;2022-11-20T06:22:16;30.23;;;16.47;;
17604;SDS011;8921;50.964;6.800;2022-11-20T06:24:44;30.47;;;16.50;;
17604;SDS011;8921;50.964;6.800;2022-11-20T06:27:12;28.70;;;16.37;;
17604;SDS011;8921;50.964;6.800;2022-11-20T06:29:40;30.07;;;16.03;;
17604;SDS011;8921;50.964;6.800;2022-11-20T06:32:09;28.30;;;17.20;;
17604;SDS011;8921;50.964;6.800;2022-11-20T06:34:37;30.67;;;16.03;;
17604;SDS011;8921;50.964;6.800;2022-11-20T06:37:05;31.13;;;17.37;;
17604;SDS011;8921;50.964;6.800;2022-11-20T06:39:33;25.80;;;15.30;;
17604;SDS011;8921;50.964;6.800;2022-11-20T06:42:01;29.73;;;15.10;;
17604;SDS011;8921;50.964;6.800;2022-11-20T06:44:30;26.20;;;15.70;;
17604;SDS011;8921;50.964;6.800;2022-11-20T06:46:58;29.63;;;15.80;;
17604;SDS011;8921;50.964;6.800;2022-11-20T06:49:26;30.23;;;16.83;;
17604;SDS011;8921;50.964;6.800;2022-11-20T06:51:54;28.03;;;16.00;;
17604;SDS011;8921;50.964;6.800;2022-11-20T06:54:22;26.63;;;15.20;;
17604;SDS011;8921;50.964;6.800;2022-11-20T06:56:51;27.90;;;14.73;;
17604;SDS011;8921;50.964;6.800;2022-11-20T06:59:19;31.83;;;15.23;;
17604;SDS011;8921;50.964;6.800;2022-11-20T07:01:47;30.50;;;17.70;;
17604;SDS011;8921;50.964;6.800;2022-11-20T07:04:15;29.10;;;16.90;;
17604;SDS011;8921;50.964;6.800;2022-11-20T07:06:43;28.60;;;15.87;;
17604;SDS011;8921;50.964;6.800;2022-11-20T07:09:12;27.50;;;16.63;;
17604;SDS011;8921;50.964;6.800;2022-11-20T07:11:40;30.27;;;16.60;;
17604;SDS011;8921;50.964;6.800;2022-11-20T07:14:08;33.80;;;19.43;;
17604;SDS011;8921;50.964;6.800;2022-11-20T07:16:36;27.40;;;16.20;;
17604;SDS011;8921;50.964;6.800;2022-11-20T07:19:04;28.07;;;16.40;;
17604;SDS011;8921;50.964;6.800;2022-11-20T07:21:33;30.20;;;16.43;;
17604;SDS011;8921;50.964;6.800;2022-11-20T07:24:01;28.97;;;15.90;;
17604;SDS011;8921;50.964;6.800;2022-11-20T07:26:29;30.30;;;17.00;;
17604;SDS011;8921;50.964;6.800;2022-11-20T07:28:57;33.47;;;17.10;;
17604;SDS011;8921;50.964;6.800;2022-11-20T07:31:25;30.27;;;17.40;;
17604;SDS011;8921;50.964;6.800;2022-11-20T07:33:54;28.47;;;16.63;;
17604;SDS011;8921;50.964;6.800;2022-11-20T07:36:22;29.80;;;17.00;;
17604;SDS011;8921;50.964;6.800;2022-11-20T07:38:50;26.27;;;14.80;;
17604;SDS011;8921;50.964;6.800;2022-11-20T07:41:18;29.90;;;17.87;;
17604;SDS011;8921;50.964;6.800;2022-11-20T07:43:46;28.70;;;16.50;;
17604;SDS011;8921;50.964;6.800;2022-11-20T07:46:15;33.60;;;17.57;;
17604;SDS011;8921;50.964;6.800;2022-11-20T07:48:43;26.50;;;15.53;;
17604;SDS011;8921;50.964;6.800;2022-11-20T07:51:11;29.47;;;16.40;;
17604;SDS011;8921;50.964;6.800;2022-11-20T07:53:39;30.33;;;18.63;;
17604;SDS011;8921;50.964;6.800;2022-11-20T07:56:07;30.27;;;17.07;;
17604;SDS011;8921;50.964;6.800;2022-11-20T07:58:36;32.27;;;18.40;;
17604;SDS011;8921;50.964;6.800;2022-11-20T08:01:04;36.73;;;18.00;;
17604;SDS011;8921;50.964;6.800;2022-11-20T08:03:32;29.20;;;16.30;;
17604;SDS011;8921;50.964;6.800;2022-11-20T08:06:00;32.33;;;17.20;;
17604;SDS011;8921;50.964;6.800;2022-11-20T08:08:29;34.00;;;19.13;;
17604;SDS011;8921;50.964;6.800;2022-11-20T08:10:57;29.53;;;16.83;;
17604;SDS011;8921;50.964;6.800;2022-11-20T08:13:43;29.83;;;16.83;;
17604;SDS011;8921;50.964;6.800;2022-11-20T08:16:30;26.30;;;15.97;;
17604;SDS011;8921;50.964;6.800;2022-11-20T08:18:58;32.03;;;15.97;;
17604;SDS011;8921;50.964;6.800;2022-11-20T08:21:27;31.60;;;16.50;;
17604;SDS011;8921;50.964;6.800;2022-11-20T08:23:55;25.87;;;14.87;;
17604;SDS011;8921;50.964;6.800;2022-11-20T08:26:23;29.33;;;16.37;;
17604;SDS011;8921;50.964;6.800;2022-11-20T08:28:57;30.60;;;16.83;;
17604;SDS011;8921;50.964;6.800;2022-11-20T08:31:23;26.77;;;15.97;;
17604;SDS011;8921;50.964;6.800;2022-11-20T08:33:51;28.97;;;16.23;;
17604;SDS011;8921;50.964;6.800;2022-11-20T08:36:19;25.73;;;15.00;;
17604;SDS011;8921;50.964;6.800;2022-11-20T08:38:50;27.50;;;16.47;;
17604;SDS011;8921;50.964;6.800;2022-11-20T08:41:18;25.07;;;14.23;;
17604;SDS011;8921;50.964;6.800;2022-11-20T08:43:55;30.23;;;14.97;;
17604;SDS011;8921;50.964;6.800;2022-11-20T08:46:23;26.47;;;14.83;;
17604;SDS011;8921;50.964;6.800;2022-11-20T08:48:51;24.27;;;15.23;;
17604;SDS011;8921;50.964;6.800;2022-11-20T08:51:19;28.23;;;14.80;;
17604;SDS011;8921;50.964;6.800;2022-11-20T08:53:47;28.30;;;16.13;;
17604;SDS011;8921;50.964;6.800;2022-11-20T08:56:16;31.53;;;17.20;;
17604;SDS011;8921;50.964;6.800;2022-11-20T08:58:44;32.23;;;15.83;;
17604;SDS011;8921;50.964;6.800;2022-11-20T09:01:12;28.17;;;13.63;;
17604;SDS011;8921;50.964;6.800;2022-11-20T09:03:40;26.00;;;14.03;;
17604;SDS011;8921;50.964;6.800;2022-11-20T09:06:08;28.00;;;16.10;;
17604;SDS011;8921;50.964;6.800;2022-11-20T09:08:36;30.70;;;15.93;;
17604;SDS011;8921;50.964;6.800;2022-11-20T09:11:05;33.27;;;15.93;;
17604;SDS011;8921;50.964;6.800;2022-11-20T09:13:33;34.60;;;16.80;;
17604;SDS011;8921;50.964;6.800;2022-11-20T09:16:02;32.80;;;16.10;;
17604;SDS011;8921;50.964;6.800;2022-11-20T09:18:29;36.63;;;17.10;;
17604;SDS011;8921;50.964;6.800;2022-11-20T09:21:00;32.43;;;16.37;;
17604;SDS011;8921;50.964;6.800;2022-11-20T09:23:32;32.57;;;17.53;;
17604;SDS011;8921;50.964;6.800;2022-11-20T09:26:12;28.30;;;15.13;;
17604;SDS011;8921;50.964;6.800;2022-11-20T09:28:39;31.90;;;15.90;;
17604;SDS011;8921;50.964;6.800;2022-11-20T09:31:08;28.60;;;16.40;;
17604;SDS011;8921;50.964;6.800;2022-11-20T09:33:36;33.73;;;18.27;;
17604;SDS011;8921;50.964;6.800;2022-11-20T09:36:04;31.20;;;16.90;;
17604;SDS011;8921;50.964;6.800;2022-11-20T09:38:32;33.40;;;16.93;;
17604;SDS011;8921;50.964;6.800;2022-11-20T09:41:04;31.83;;;17.47;;
17604;SDS011;8921;50.964;6.800;2022-11-20T09:46:25;32.40;;;16.90;;
17604;SDS011;8921;50.964;6.800;2022-11-20T09:56:28;27.23;;;16.23;;
17604;SDS011;8921;50.964;6.800;2022-11-20T09:58:59;26.27;;;15.30;;
17604;SDS011;8921;50.964;6.800;2022-11-20T10:01:30;27.60;;;15.87;;
17604;SDS011;8921;50.964;6.800;2022-11-20T10:06:31;32.63;;;16.03;;
17604;SDS011;8921;50.964;6.800;2022-11-20T10:09:00;28.53;;;16.30;;
17604;SDS011;8921;50.964;6.800;2022-11-20T10:14:16;26.40;;;14.67;;
17604;SDS011;8921;50.964;6.800;2022-11-20T10:27:08;29.07;;;16.20;;
17604;SDS011;8921;50.964;6.800;2022-11-20T10:29:32;24.43;;;13.03;;
17604;SDS011;8921;50.964;6.800;2022-11-20T10:32:02;31.30;;;16.20;;
17604;SDS011;8921;50.964;6.800;2022-11-20T10:37:00;27.23;;;15.30;;
17604;SDS011;8921;50.964;6.800;2022-11-20T10:40:02;25.90;;;14.40;;
17604;SDS011;8921;50.964;6.800;2022-11-20T10:42:01;29.03;;;16.10;;
17604;SDS011;8921;50.964;6.800;2022-11-20T10:44:29;28.00;;;15.10;;
17604;SDS011;8921;50.964;6.800;2022-11-20T10:47:17;32.47;;;14.63;;
17604;SDS011;8921;50.964;6.800;2022-11-20T10:49:45;28.53;;;14.80;;
17604;SDS011;8921;50.964;6.800;2022-11-20T10:52:16;30.70;;;15.80;;
17604;SDS011;8921;50.964;6.800;2022-11-20T10:54:47;30.80;;;15.80;;
17604;SDS011;8921;50.964;6.800;2022-11-20T10:57:17;29.47;;;16.40;;
17604;SDS011;8921;50.964;6.800;2022-11-20T11:02:34;28.47;;;16.93;;
17604;SDS011;8921;50.964;6.800;2022-11-20T11:05:06;30.37;;;16.33;;
17604;SDS011;8921;50.964;6.800;2022-11-20T11:07:35;27.70;;;16.17;;
17604;SDS011;8921;50.964;6.800;2022-11-20T11:10:00;34.97;;;17.10;;
17604;SDS011;8921;50.964;6.800;2022-11-20T11:12:28;31.20;;;17.17;;
17604;SDS011;8921;50.964;6.800;2022-11-20T11:14:56;29.87;;;17.00;;
17604;SDS011;8921;50.964;6.800;2022-11-20T11:17:27;31.13;;;16.70;;
17604;SDS011;8921;50.964;6.800;2022-11-20T11:22:31;26.73;;;15.93;;
17604;SDS011;8921;50.964;6.800;2022-11-20T11:24:58;29.60;;;16.60;;
17604;SDS011;8921;50.964;6.800;2022-11-20T11:27:26;32.73;;;17.17;;
17604;SDS011;8921;50.964;6.800;2022-11-20T11:30:11;27.67;;;15.10;;
17604;SDS011;8921;50.964;6.800;2022-11-20T11:32:31;25.07;;;13.83;;
17604;SDS011;8921;50.964;6.800;2022-11-20T11:35:00;25.27;;;14.57;;
17604;SDS011;8921;50.964;6.800;2022-11-20T11:37:32;27.83;;;14.80;;
17604;SDS011;8921;50.964;6.800;2022-11-20T11:39:56;30.40;;;15.33;;
17604;SDS011;8921;50.964;6.800;2022-11-20T11:42:24;28.10;;;15.00;;
17604;SDS011;8921;50.964;6.800;2022-11-20T11:44:52;26.77;;;15.23;;
17604;SDS011;8921;50.964;6.800;2022-11-20T11:52:42;28.63;;;15.20;;
17604;SDS011;8921;50.964;6.800;2022-11-20T11:55:07;27.77;;;15.13;;
17604;SDS011;8921;50.964;6.800;2022-11-20T12:00:12;29.43;;;15.67;;
17604;SDS011;8921;50.964;6.800;2022-11-20T12:07:46;26.23;;;14.97;;
17604;SDS011;8921;50.964;6.800;2022-11-20T12:10:21;31.93;;;16.47;;
17604;SDS011;8921;50.964;6.800;2022-11-20T12:12:49;29.10;;;15.20;;
17604;SDS011;8921;50.964;6.800;2022-11-20T12:15:20;29.70;;;15.63;;
17604;SDS011;8921;50.964;6.800;2022-11-20T12:17:44;27.47;;;16.37;;
17604;SDS011;8921;50.964;6.800;2022-11-20T12:20:14;24.83;;;14.97;;
17604;SDS011;8921;50.964;6.800;2022-11-20T12:22:52;28.00;;;14.80;;
17604;SDS011;8921;50.964;6.800;2022-11-20T12:25:33;30.33;;;16.07;;
17604;SDS011;8921;50.964;6.800;2022-11-20T12:30:32;26.43;;;16.53;;
17604;SDS011;8921;50.964;6.800;2022-11-20T12:41:24;32.90;;;16.20;;
17604;SDS011;8921;50.964;6.800;2022-11-20T12:44:04;26.23;;;14.67;;
17604;SDS011;8921;50.964;6.800;2022-11-20T12:46:47;28.87;;;15.50;;
17604;SDS011;8921;50.964;6.800;2022-11-20T12:51:56;27.87;;;14.07;;
17604;SDS011;8921;50.964;6.800;2022-11-20T12:56:57;32.33;;;15.63;;
17604;SDS011;8921;50.964;6.800;2022-11-20T12:59:33;25.90;;;14.27;;
17604;SDS011;8921;50.964;6.800;2022-11-20T13:01:58;26.60;;;14.70;;
17604;SDS011;8921;50.964;6.800;2022-11-20T13:06:52;26.70;;;14.73;;
17604;SDS011;8921;50.964;6.800;2022-11-20T13:09:20;27.40;;;14.30;;
17604;SDS011;8921;50.964;6.800;2022-11-20T13:17:13;24.97;;;14.87;;
17604;SDS011;8921;50.964;6.800;2022-11-20T13:19:39;27.43;;;16.27;;
17604;SDS011;8921;50.964;6.800;2022-11-20T13:22:08;23.87;;;13.77;;
17604;SDS011;8921;50.964;6.800;2022-11-20T13:24:36;22.93;;;13.33;;
17604;SDS011;8921;50.964;6.800;2022-11-20T13:29:33;25.27;;;15.03;;
17604;SDS011;8921;50.964;6.800;2022-11-20T13:32:03;31.37;;;16.10;;
17604;SDS011;8921;50.964;6.800;2022-11-20T13:34:31;26.93;;;15.10;;
17604;SDS011;8921;50.964;6.800;2022-11-20T13:36:59;28.23;;;16.00;;
17604;SDS011;8921;50.964;6.800;2022-11-20T13:39:29;24.27;;;14.67;;
17604;SDS011;8921;50.964;6.800;2022-11-20T13:41:57;29.10;;;15.10;;
17604;SDS011;8921;50.964;6.800;2022-11-20T13:44:25;28.47;;;17.00;;
17604;SDS011;8921;50.964;6.800;2022-11-20T13:46:52;26.83;;;15.23;;
17604;SDS011;8921;50.964;6.800;2022-11-20T13:49:23;25.67;;;15.70;;
17604;SDS011;8921;50.964;6.800;2022-11-20T13:51:50;27.47;;;15.30;;
17604;SDS011;8921;50.964;6.800;2022-11-20T13:59:40;28.57;;;15.10;;
17604;SDS011;8921;50.964;6.800;2022-11-20T14:02:18;26.33;;;15.73;;
17604;SDS011;8921;50.964;6.800;2022-11-20T14:04:47;26.43;;;14.13;;
17604;SDS011;8921;50.964;6.800;2022-11-20T14:07:15;26.80;;;15.70;;
17604;SDS011;8921;50.964;6.800;2022-11-20T14:09:53;22.17;;;13.73;;
17604;SDS011;8921;50.964;6.800;2022-11-20T14:12:21;29.87;;;15.03;;
17604;SDS011;8921;50.964;6.800;2022-11-20T14:14:49;24.57;;;13.30;;
17604;SDS011;8921;50.964;6.800;2022-11-20T14:17:20;26.37;;;16.10;;
17604;SDS011;8921;50.964;6.800;2022-11-20T14:19:45;30.07;;;17.50;;
17604;SDS011;8921;50.964;6.800;2022-11-20T14:22:17;27.07;;;14.23;;
17604;SDS011;8921;50.964;6.800;2022-11-20T14:24:44;27.30;;;14.73;;
17604;SDS011;8921;50.964;6.800;2022-11-20T14:27:12;28.73;;;17.20;;
17604;SDS011;8921;50.964;6.800;2022-11-20T14:29:40;27.47;;;16.50;;
17604;SDS011;8921;50.964;6.800;2022-11-20T14:32:08;29.70;;;15.73;;
17604;SDS011;8921;50.964;6.800;2022-11-20T14:34:38;27.47;;;15.23;;
17604;SDS011;8921;50.964;6.800;2022-11-20T14:37:05;32.97;;;16.90;;
17604;SDS011;8921;50.964;6.800;2022-11-20T14:39:34;26.03;;;15.20;;
17604;SDS011;8921;50.964;6.800;2022-11-20T14:42:01;25.40;;;14.50;;
17604;SDS011;8921;50.964;6.800;2022-11-20T14:44:31;28.37;;;16.40;;
17604;SDS011;8921;50.964;6.800;2022-11-20T14:46:58;23.10;;;13.27;;
17604;SDS011;8921;50.964;6.800;2022-11-20T14:49:26;27.60;;;14.60;;
17604;SDS011;8921;50.964;6.800;2022-11-20T14:52:00;26.87;;;15.00;;
17604;SDS011;8921;50.964;6.800;2022-11-20T14:54:28;32.80;;;17.70;;
17604;SDS011;8921;50.964;6.800;2022-11-20T14:56:57;29.10;;;15.80;;
17604;SDS011;8921;50.964;6.800;2022-11-20T14:59:25;26.70;;;15.27;;
17604;SDS011;8921;50.964;6.800;2022-11-20T15:04:24;26.00;;;14.90;;
17604;SDS011;8921;50.964;6.800;2022-11-20T15:06:53;29.73;;;15.00;;
17604;SDS011;8921;50.964;6.800;2022-11-20T15:09:20;28.00;;;15.53;;
17604;SDS011;8921;50.964;6.800;2022-11-20T15:11:55;28.00;;;14.70;;
17604;SDS011;8921;50.964;6.800;2022-11-20T15:14:23;24.13;;;14.67;;
17604;SDS011;8921;50.964;6.800;2022-11-20T15:16:50;29.13;;;14.90;;
17604;SDS011;8921;50.964;6.800;2022-11-20T15:19:20;26.70;;;15.27;;
17604;SDS011;8921;50.964;6.800;2022-11-20T15:21:47;29.90;;;16.50;;
17604;SDS011;8921;50.964;6.800;2022-11-20T15:24:15;31.70;;;15.80;;
17604;SDS011;8921;50.964;6.800;2022-11-20T15:26:43;30.27;;;16.90;;
17604;SDS011;8921;50.964;6.800;2022-11-20T15:29:12;31.53;;;17.97;;
17604;SDS011;8921;50.964;6.800;2022-11-20T15:31:40;32.10;;;19.80;;
17604;SDS011;8921;50.964;6.800;2022-11-20T15:34:11;32.67;;;16.17;;
17604;SDS011;8921;50.964;6.800;2022-11-20T15:36:39;30.80;;;16.00;;
17604;SDS011;8921;50.964;6.800;2022-11-20T15:39:07;29.23;;;17.00;;
17604;SDS011;8921;50.964;6.800;2022-11-20T15:41:35;31.23;;;16.50;;
17604;SDS011;8921;50.964;6.800;2022-11-20T15:44:04;32.60;;;16.23;;
17604;SDS011;8921;50.964;6.800;2022-11-20T15:46:32;34.33;;;16.53;;
17604;SDS011;8921;50.964;6.800;2022-11-20T15:49:00;30.33;;;17.40;;
17604;SDS011;8921;50.964;6.800;2022-11-20T15:51:31;28.43;;;17.20;;
17604;SDS011;8921;50.964;6.800;2022-11-20T15:53:59;28.67;;;17.43;;
17604;SDS011;8921;50.964;6.800;2022-11-20T15:56:27;30.87;;;15.97;;
17604;SDS011;8921;50.964;6.800;2022-11-20T15:58:55;30.60;;;16.50;;
17604;SDS011;8921;50.964;6.800;2022-11-20T16:01:23;28.87;;;15.70;;
17604;SDS011;8921;50.964;6.800;2022-11-20T16:03:51;33.47;;;16.47;;
17604;SDS011;8921;50.964;6.800;2022-11-20T16:06:20;27.37;;;16.13;;